Time;durP1;ratioP1;P1;durP2;ratioP2;P2;SDS_P1;SDS_P2;PMS_P1;PMS_P2;Temp;Humidity;BMP_temperature;BMP_pressure;BME280_temperature;BME280_humidity;BME280_pressure;Samples;Min_cycle;Max_cycle;Signal;HPM_P1;HPM_P2
2021/12/14 00:01:53;;;;;;;11.10;6.20;;;;;;;5.55;100.00;100443.22;4937282;28;20065;-66
2021/12/14 00:04:32;;;;;;;9.48;5.80;;;;;;;5.57;100.00;100451.84;4945599;28;20094;-66
2021/12/14 00:06:58;;;;;;;8.82;5.53;;;;;;;5.54;100.00;100446.91;4945610;28;20498;-65
2021/12/14 00:09:28;;;;;;;10.38;5.65;;;;;;;5.50;100.00;100442.94;4945067;28;20047;-66
2021/12/14 00:17:15;;;;;;;9.35;5.20;;;;;;;5.60;100.00;100445.34;4952782;28;20977;-66
2021/12/14 00:19:40;;;;;;;9.63;5.57;;;;;;;5.61;100.00;100446.97;4956437;28;20070;-66
2021/12/14 00:22:19;;;;;;;9.90;5.15;;;;;;;5.60;100.00;100453.31;4951971;28;20050;-66
2021/12/14 00:24:44;;;;;;;8.45;5.30;;;;;;;5.60;100.00;100451.47;4946269;28;20092;-66
2021/12/14 00:27:11;;;;;;;8.43;5.05;;;;;;;5.58;100.00;100455.31;4922208;28;20038;-66
2021/12/14 00:29:40;;;;;;;8.45;5.30;;;;;;;5.60;100.00;100451.47;4941386;28;20540;-66
2021/12/14 00:32:08;;;;;;;12.43;4.75;;;;;;;5.63;100.00;100448.47;4941832;28;20338;-66
2021/12/14 00:34:37;;;;;;;8.02;5.25;;;;;;;5.65;100.00;100437.66;4951191;28;20039;-66
2021/12/14 00:37:06;;;;;;;7.38;4.78;;;;;;;5.67;100.00;100443.63;4944418;28;20053;-66
2021/12/14 00:39:31;;;;;;;10.80;5.25;;;;;;;5.69;100.00;100444.28;4952787;28;20036;-66
2021/12/14 00:41:57;;;;;;;10.02;5.18;;;;;;;5.68;100.00;100445.25;4952810;28;20034;-66
2021/12/14 00:44:23;;;;;;;7.28;4.68;;;;;;;5.74;100.00;100460.50;4950727;28;20147;-66
2021/12/14 00:46:48;;;;;;;8.00;4.65;;;;;;;5.72;100.00;100459.88;4953555;28;20023;-66
2021/12/14 00:49:14;;;;;;;7.50;4.72;;;;;;;5.75;100.00;100458.66;4945757;28;20024;-66
2021/12/14 00:51:40;;;;;;;8.27;5.05;;;;;;;5.72;100.00;100454.53;4951156;28;20034;-66
2021/12/14 00:54:10;;;;;;;7.82;5.10;;;;;;;5.73;100.00;100440.22;4950603;28;20031;-66
2021/12/14 00:56:35;;;;;;;8.50;5.00;;;;;;;5.75;100.00;100450.69;4935324;28;20034;-66
2021/12/14 00:59:03;;;;;;;8.70;4.72;;;;;;;5.74;100.00;100447.22;4954764;28;20564;-66
2021/12/14 01:01:31;;;;;;;11.55;5.28;;;;;;;5.76;100.00;100453.16;4944971;28;20034;-66
2021/12/14 01:03:59;;;;;;;9.18;5.57;;;;;;;5.81;100.00;100450.78;4952164;28;20065;-67
2021/12/14 01:06:27;;;;;;;8.85;5.88;;;;;;;5.87;100.00;100443.09;4940717;28;20050;-67
2021/12/14 01:08:53;;;;;;;9.23;5.65;;;;;;;5.78;100.00;100443.16;4938683;28;20039;-67
2021/12/14 01:11:25;;;;;;;9.82;5.18;;;;;;;5.74;100.00;100441.03;4938087;28;20826;-67
2021/12/14 01:14:01;;;;;;;9.40;5.20;;;;;;;5.75;100.00;100446.19;4951433;28;20027;-67
2021/12/14 01:16:34;;;;;;;10.65;6.28;;;;;;;5.75;100.00;100446.19;4937980;28;20211;-65
2021/12/14 01:19:18;;;;;;;8.85;5.88;;;;;;;5.72;100.00;100445.75;4923492;28;20694;-65
2021/12/14 01:27:01;;;;;;;12.23;6.45;;;;;;;5.73;100.00;100450.84;4950236;28;20045;-67
2021/12/14 01:29:26;;;;;;;11.75;6.43;;;;;;;5.72;100.00;100440.41;4953936;28;20114;-67
2021/12/14 01:31:58;;;;;;;10.77;6.78;;;;;;;5.75;100.00;100443.53;4953631;28;20122;-66
2021/12/14 01:34:24;;;;;;;13.63;7.32;;;;;;;5.72;100.00;100440.41;4952139;28;20034;-66
2021/12/14 01:36:54;;;;;;;12.10;7.22;;;;;;;5.72;100.00;100446.56;4958409;28;20121;-66
2021/12/14 01:42:10;;;;;;;9.88;6.57;;;;;;;5.70;100.00;100453.88;4952049;28;20037;-65
2021/12/14 01:44:50;;;;;;;11.02;7.20;;;;;;;5.71;100.00;100444.88;4936017;28;20106;-66
2021/12/14 01:47:21;;;;;;;9.63;6.55;;;;;;;5.69;100.00;100441.59;4959870;28;20233;-66
2021/12/14 01:49:47;;;;;;;12.90;7.18;;;;;;;5.71;100.00;100447.56;4950333;28;20093;-66
2021/12/14 01:52:18;;;;;;;12.68;7.15;;;;;;;5.71;100.00;100447.56;4956433;28;20031;-66
2021/12/14 01:54:48;;;;;;;10.95;6.70;;;;;;;5.70;100.00;100451.22;4952645;28;20671;-66
2021/12/14 01:57:16;;;;;;;11.13;7.10;;;;;;;5.71;100.00;100460.03;4938939;28;20124;-66
2021/12/14 01:59:43;;;;;;;10.75;6.70;;;;;;;5.66;100.00;100447.25;4951605;28;20027;-66
2021/12/14 02:02:40;;;;;;;10.98;6.53;;;;;;;5.66;100.00;100447.25;4953637;28;20046;-66
2021/12/14 02:05:08;;;;;;;13.48;6.75;;;;;;;5.65;100.00;100442.16;4950219;28;20472;-66
2021/12/14 02:07:33;;;;;;;9.35;5.88;;;;;;;5.67;100.00;100442.78;4942676;28;20608;-66
2021/12/14 02:10:05;;;;;;;11.32;6.85;;;;;;;5.71;100.00;100439.56;4941256;28;20031;-66
2021/12/14 02:12:31;;;;;;;9.80;5.88;;;;;;;5.73;100.00;100436.75;4955928;28;20536;-66
2021/12/14 02:15:14;;;;;;;9.75;5.97;;;;;;;5.73;100.00;100437.56;4942963;28;20046;-66
2021/12/14 02:17:40;;;;;;;9.75;5.63;;;;;;;5.74;100.00;100438.38;4945716;28;20446;-66
2021/12/14 02:20:06;;;;;;;9.55;6.32;;;;;;;5.71;100.00;100430.78;4945166;28;20401;-66
2021/12/14 02:22:33;;;;;;;11.40;6.15;;;;;;;5.69;100.00;100424.81;4954382;28;20477;-66
2021/12/14 02:24:59;;;;;;;10.25;6.72;;;;;;;5.72;100.00;100430.59;4941094;28;20678;-66
2021/12/14 02:27:32;;;;;;;10.50;6.85;;;;;;;5.70;100.00;100437.94;4943221;28;20027;-66
2021/12/14 02:30:03;;;;;;;9.75;5.85;;;;;;;5.70;100.00;100431.78;4940003;28;20561;-66
2021/12/14 02:32:28;;;;;;;10.15;6.35;;;;;;;5.70;100.00;100435.28;4934655;28;20717;-66
2021/12/14 02:35:01;;;;;;;9.77;6.35;;;;;;;5.70;100.00;100421.97;4954843;28;20040;-66
2021/12/14 02:37:41;;;;;;;9.82;6.40;;;;;;;5.72;100.00;100419.97;4952913;28;20125;-66
2021/12/14 02:40:18;;;;;;;10.18;6.80;;;;;;;5.68;100.00;100418.66;4950934;28;20090;-66
2021/12/14 02:42:43;;;;;;;11.30;7.38;;;;;;;5.72;100.00;100416.47;4944679;28;20034;-66
2021/12/14 02:45:09;;;;;;;14.50;8.10;;;;;;;5.71;100.00;100426.25;4950768;28;20046;-66
2021/12/14 02:47:34;;;;;;;12.07;7.75;;;;;;;5.70;100.00;100418.50;4947916;28;20133;-66
2021/12/14 02:50:00;;;;;;;10.60;7.32;;;;;;;5.70;100.00;100414.00;4952233;28;20296;-66
2021/12/14 02:52:34;;;;;;;11.52;7.63;;;;;;;5.68;100.00;100413.34;4956599;28;20303;-67
2021/12/14 02:55:20;;;;;;;11.82;7.45;;;;;;;5.71;100.00;100420.13;4928693;28;20123;-67
2021/12/14 02:57:57;;;;;;;12.80;7.97;;;;;;;5.70;100.00;100426.47;4942728;28;20494;-67
2021/12/14 03:00:29;;;;;;;12.77;7.93;;;;;;;5.71;100.00;100428.94;4956001;28;20041;-68
2021/12/14 03:02:56;;;;;;;10.93;7.05;;;;;;;5.73;100.00;100426.91;4950011;28;20031;-67
2021/12/14 03:05:25;;;;;;;10.68;7.07;;;;;;;5.71;100.00;100415.63;4951270;28;20054;-68
2021/12/14 03:08:03;;;;;;;12.27;7.35;;;;;;;5.71;100.00;100434.25;4950911;28;20047;-67
2021/12/14 03:12:55;;;;;;;11.77;7.53;;;;;;;5.72;100.00;100419.97;4949337;28;20453;-67
2021/12/14 03:15:26;;;;;;;10.35;7.03;;;;;;;5.76;100.00;100402.59;4950838;28;20403;-67
2021/12/14 03:17:55;;;;;;;11.88;7.50;;;;;;;5.72;100.00;100404.00;4963439;28;20130;-67
2021/12/14 03:20:28;;;;;;;12.00;7.30;;;;;;;5.74;100.00;100388.69;4918189;28;20631;-67
2021/12/14 03:23:08;;;;;;;11.45;7.75;;;;;;;5.75;100.00;100389.50;4949550;28;20033;-67
2021/12/14 03:25:35;;;;;;;11.90;7.97;;;;;;;5.72;100.00;100393.34;4953966;28;20039;-67
2021/12/14 03:28:01;;;;;;;13.07;8.38;;;;;;;5.72;100.00;100398.69;4957451;28;20284;-67
2021/12/14 03:30:26;;;;;;;15.10;8.38;;;;;;;5.71;100.00;100391.69;4952530;28;20034;-66
2021/12/14 03:32:57;;;;;;;13.02;8.63;;;;;;;5.73;100.00;100383.53;4942702;28;20043;-66
2021/12/14 03:35:41;;;;;;;14.15;9.07;;;;;;;5.68;100.00;100381.41;4949692;28;20035;-66
2021/12/14 03:38:16;;;;;;;13.32;8.27;;;;;;;5.72;100.00;100376.56;4935382;28;20039;-66
2021/12/14 03:40:42;;;;;;;14.27;8.07;;;;;;;5.72;100.00;100366.75;4949093;28;20386;-66
2021/12/14 03:43:07;;;;;;;13.95;8.88;;;;;;;5.74;100.00;100364.75;4951864;28;20031;-66
2021/12/14 03:45:33;;;;;;;13.75;8.45;;;;;;;5.71;100.00;100343.81;4934249;28;20058;-66
2021/12/14 03:47:59;;;;;;;13.43;7.97;;;;;;;5.66;100.00;100327.56;4945542;28;20457;-66
2021/12/14 03:50:34;;;;;;;16.90;9.13;;;;;;;5.68;100.00;100328.22;4945601;28;20122;-66
2021/12/14 03:53:00;;;;;;;15.60;9.30;;;;;;;5.63;100.00;100317.31;4947472;28;20118;-66
2021/12/14 03:55:47;;;;;;;13.93;9.68;;;;;;;5.64;100.00;100332.25;4944099;28;20097;-66
2021/12/14 03:58:15;;;;;;;17.05;8.85;;;;;;;5.65;100.00;100322.44;4948952;28;20568;-66
2021/12/14 04:00:47;;;;;;;16.30;9.23;;;;;;;5.67;100.00;100325.75;4954263;28;20037;-66
2021/12/14 04:03:15;;;;;;;13.82;9.00;;;;;;;5.71;100.00;100327.84;4942326;28;20030;-66
2021/12/14 04:05:42;;;;;;;13.77;8.20;;;;;;;5.66;100.00;100327.56;4952147;28;20402;-66
2021/12/14 04:08:08;;;;;;;13.20;8.30;;;;;;;5.62;100.00;100327.13;4949252;28;20038;-66
2021/12/14 04:10:35;;;;;;;14.43;9.02;;;;;;;5.67;100.00;100333.75;4947496;28;20034;-66
2021/12/14 04:13:01;;;;;;;15.55;9.10;;;;;;;5.66;100.00;100324.09;4939124;28;20568;-66
2021/12/14 04:15:26;;;;;;;19.42;8.70;;;;;;;5.58;100.00;100317.03;4937670;28;20034;-67
2021/12/14 04:17:52;;;;;;;14.25;9.35;;;;;;;5.58;100.00;100311.72;4930945;29;20055;-66
2021/12/14 04:20:22;;;;;;;18.45;9.57;;;;;;;5.60;100.00;100309.69;4942104;28;20268;-66
2021/12/14 04:22:49;;;;;;;18.52;10.35;;;;;;;5.63;100.00;100290.72;4952292;28;20406;-66
2021/12/14 04:25:16;;;;;;;16.27;10.32;;;;;;;5.57;100.00;100272.84;4957501;28;20063;-66
2021/12/14 04:27:43;;;;;;;17.60;9.77;;;;;;;5.56;100.00;100285.28;4953478;28;20129;-66
2021/12/14 04:30:10;;;;;;;15.55;10.15;;;;;;;5.58;100.00;100279.78;4949665;28;20031;-66
2021/12/14 04:32:36;;;;;;;16.02;10.35;;;;;;;5.58;100.00;100293.91;4954986;28;20860;-66
2021/12/14 04:35:03;;;;;;;18.98;11.02;;;;;;;5.56;100.00;100277.31;4950144;28;20037;-65
2021/12/14 04:37:29;;;;;;;17.38;10.45;;;;;;;5.60;100.00;100277.78;4957184;28;20027;-65
2021/12/14 04:40:22;;;;;;;18.13;9.73;;;;;;;5.61;100.00;100290.06;4950137;28;20958;-65
2021/12/14 04:53:54;;;;;;;17.50;9.35;;;;;;;5.59;100.00;100311.53;4953344;28;20054;-66
2021/12/14 04:56:24;;;;;;;16.55;9.98;;;;;;;5.64;100.00;100310.97;4936359;28;20142;-65
2021/12/14 04:58:57;;;;;;;;;;;;;;;5.70;100.00;100312.09;4952878;28;20030;-66
2021/12/14 05:01:23;;;;;;;15.15;9.25;;;;;;;5.73;100.00;100320.50;4956520;28;19922;-65
2021/12/14 05:03:53;;;;;;;12.95;8.82;;;;;;;5.69;100.00;100324.56;4937797;28;20042;-66
2021/12/14 05:06:22;;;;;;;;;;;;;;;5.71;100.00;100330.50;4940103;28;20027;-67
2021/12/14 05:12:07;;;;;;;13.80;9.27;;;;;;;5.67;100.00;100329.25;4954483;28;20538;-66
2021/12/14 05:14:34;;;;;;;17.05;10.25;;;;;;;5.66;100.00;100330.22;4934760;28;20038;-66
2021/12/14 05:17:02;;;;;;;17.02;9.75;;;;;;;5.66;100.00;100334.72;4941080;28;20050;-66
2021/12/14 05:19:29;;;;;;;18.20;10.85;;;;;;;5.69;100.00;100327.22;4936767;28;20038;-66
2021/12/14 05:22:19;;;;;;;18.00;10.32;;;;;;;5.70;100.00;100331.53;4951172;28;20105;-65
2021/12/14 05:24:48;;;;;;;18.40;11.05;;;;;;;5.69;100.00;100343.19;4954220;28;20518;-66
2021/12/14 05:27:26;;;;;;;16.55;10.43;;;;;;;5.67;100.00;100345.19;4938515;28;20042;-67
2021/12/14 05:29:52;;;;;;;18.80;11.57;;;;;;;5.61;100.00;100340.59;4923757;28;20122;-67
2021/12/14 05:32:18;;;;;;;20.75;11.93;;;;;;;5.65;100.00;100346.38;4951487;28;20083;-67
2021/12/14 05:34:46;;;;;;;23.10;13.13;;;;;;;5.63;100.00;100352.69;4937642;28;20039;-68
2021/12/14 05:37:13;;;;;;;22.20;12.82;;;;;;;5.65;100.00;100347.22;4933746;28;20496;-67
2021/12/14 05:39:51;;;;;;;24.05;13.50;;;;;;;5.54;100.00;100345.00;4942981;28;20031;-66
2021/12/14 05:45:09;;;;;;;23.92;13.45;;;;;;;5.59;100.00;100362.06;4954897;28;20046;-67
2021/12/14 05:47:40;;;;;;;27.55;13.77;;;;;;;5.59;100.00;100356.75;4956076;28;20501;-67
2021/12/14 05:50:06;;;;;;;27.05;14.70;;;;;;;5.58;100.00;100360.41;4932489;28;20027;-66
2021/12/14 05:52:31;;;;;;;26.42;14.10;;;;;;;5.60;100.00;100363.72;4941001;28;20045;-65
2021/12/14 05:54:57;;;;;;;33.83;16.08;;;;;;;5.60;100.00;100365.56;4943255;28;20045;-66
2021/12/14 05:57:25;;;;;;;34.40;16.65;;;;;;;5.60;100.00;100365.56;4951680;28;20446;-68
2021/12/14 05:59:50;;;;;;;35.80;16.70;;;;;;;5.59;100.00;100371.84;4931035;28;20516;-67
2021/12/14 06:02:16;;;;;;;37.22;17.15;;;;;;;5.58;100.00;100362.25;4950930;28;20034;-66
2021/12/14 06:04:44;;;;;;;33.58;16.30;;;;;;;5.61;100.00;100367.19;4952684;28;20069;-66
2021/12/14 06:07:10;;;;;;;33.90;16.48;;;;;;;5.60;100.00;100374.34;4952364;28;20026;-66
2021/12/14 06:09:41;;;;;;;33.22;15.88;;;;;;;5.63;100.00;100379.31;4941323;28;20101;-66
2021/12/14 06:12:06;;;;;;;;;;;;;;;5.66;100.00;100377.28;4933401;28;20075;-66
2021/12/14 06:14:32;;;;;;;34.83;16.95;;;;;;;5.65;100.00;100380.97;4957663;28;19926;-66
2021/12/14 06:17:00;;;;;;;41.15;18.85;;;;;;;5.62;100.00;100374.19;4953070;28;20034;-67
2021/12/14 06:19:38;;;;;;;41.70;19.23;;;;;;;5.60;100.00;100386.84;4917028;28;20466;-66
2021/12/14 06:22:22;;;;;;;41.40;18.08;;;;;;;5.61;100.00;100369.84;4926012;28;20039;-66
